Vineyard Haven, Massachusetts
Current Conditions -  °F | °C
As of 3:01 AM on Thursday 27 Nov 2014 (Local Time) from KMVY Reporting Station
Unknown Precip Unknown Precip  
Wind Chill: 24°   Ceiling: 1100
Heat Index: 35°   Visibility: 8mi
Dew Point: 33°   Wind: 20mph
Humidity: 92%   Direction: 330°NNW
Pressure: 29.69"   Gusts: 29mph
Location:  41.46°N, 70.61°W
Report Text: KMVY 270801Z AUTO 33017G25KT 8SM UP OVC011 02/01 A2969 RMK AO2 RAE0756UPB0756 P0000 T00170006
Loading
Personal Weather Stations






























Interactive Weather Map New forecast layout! Learn more

10-Day Weather Forecast

Advertisements
Track Severe Weather on mobile